| time (UTC) | temp C | wind direction | speed KPH | gust KPH | rain 1hr cm | rain 24hr cm | rain mn cm | humidity % | barometer mb |
| 20260507181534 | 17 | 310 | 14.5 | 22.5 | 0.00 | 0.00 | 0.00 | 38 | 1012.3 |
| 20260507180040 | 18 | 312 | 9.7 | 27.4 | 0.00 | 0.00 | 0.00 | 38 | 1012.2 |
| 20260507174536 | 17 | 315 | 11.3 | 24.1 | 0.00 | 0.00 | 0.00 | 38 | 1012.3 |
| 20260507173039 | 17 | 272 | 11.3 | 24.1 | 0.00 | 0.00 | 0.00 | 40 | 1012.3 |
| 20260507171542 | 17 | 290 | 14.5 | 29.0 | 0.00 | 0.00 | 0.00 | 40 | 1012.5 |
| 20260507170037 | 16 | 32 | 12.9 | 29.0 | 0.00 | 0.00 | 0.00 | 42 | 1012.7 |
| 20260507164546 | 16 | 341 | 8.0 | 24.1 | 0.00 | 0.00 | 0.00 | 42 | 1012.7 |
| 20260507163032 | 16 | 320 | 11.3 | 24.1 | 0.00 | 0.00 | 0.00 | 43 | 1012.6 |
| 20260507161540 | 15 | 341 | 12.9 | 22.5 | 0.00 | 0.00 | 0.00 | 43 | 1012.5 |
| 20260507160038 | 15 | 292 | 12.9 | 24.1 | 0.00 | 0.00 | 0.00 | 43 | 1012.5 |
| 20260507154535 | 15 | 319 | 11.3 | 24.1 | 0.00 | 0.00 | 0.00 | 45 | 1012.4 |
| 20260507153030 | 15 | 32 | 8.0 | 16.1 | 0.00 | 0.00 | 0.00 | 45 | 1012.3 |
| 20260507151539 | 14 | 304 | 4.8 | 16.1 | 0.00 | 0.00 | 0.00 | 47 | 1012.3 |
| 20260507150030 | 12 | 0 | 1.6 | 6.4 | 0.00 | 0.00 | 0.00 | 53 | 1012.4 |
| 20260507144534 | 11 | 0 | 0.0 | 3.2 | 0.00 | 0.00 | 0.00 | 52 | 1012.2 |
| 20260507143031 | 11 | 257 | 0.0 | 11.3 | 0.00 | 0.00 | 0.00 | 53 | 1012.2 |
| 20260507141533 | 10 | 288 | 1.6 | 8.0 | 0.00 | 0.00 | 0.00 | 55 | 1012.2 |
| 20260507140031 | 10 | 325 | 6.4 | 16.1 | 0.00 | 0.00 | 0.00 | 54 | 1012.2 |
| 20260507134539 | 10 | 315 | 9.7 | 19.3 | 0.00 | 0.00 | 0.00 | 53 | 1012.1 |
| 20260507133030 | 11 | 352 | 11.3 | 19.3 | 0.00 | 0.00 | 0.00 | 50 | 1011.9 |
| 20260507131536 | 10 | 305 | 4.8 | 16.1 | 0.00 | 0.00 | 0.00 | 56 | 1011.8 |
| 20260507130029 | 9 | 329 | 6.4 | 16.1 | 0.00 | 0.00 | 0.00 | 57 | 1011.8 |
| 20260507124544 | 8 | 330 | 4.8 | 9.7 | 0.00 | 0.00 | 0.00 | 60 | 1011.6 |
| 20260507123031 | 6 | 323 | 6.4 | 12.9 | 0.00 | 0.00 | 0.00 | 66 | 1011.5 |
| 20260507121533 | 5 | 322 | 1.6 | 6.4 | 0.00 | 0.00 | 0.00 | 67 | 1011.5 |
| 20260507120032 | 5 | 350 | 3.2 | 6.4 | 0.00 | 0.00 | 0.00 | 70 | 1011.3 |
| 20260507114535 | 3 | 304 | 0.0 | 4.8 | 0.00 | 0.00 | 0.00 | 71 | 1011.3 |
| 20260507113033 | 4 | 342 | 0.0 | 3.2 | 0.00 | 0.00 | 0.00 | 69 | 1011.2 |
| 20260507111537 | 5 | 305 | 0.0 | 1.6 | 0.00 | 0.00 | 0.00 | 68 | 1011.0 |
| 20260507110046 | 6 | 338 | 0.0 | 4.8 | 0.00 | 0.00 | 0.00 | 64 | 1011.0 |
| 20260507104533 | 6 | 338 | 0.0 | 1.6 | 0.00 | 0.00 | 0.00 | 64 | 1010.9 |
| 20260507103033 | 7 | 0 | 0.0 | 1.6 | 0.00 | 0.00 | 0.00 | 64 | 1010.7 |
| 20260507101540 | 7 | 338 | 0.0 | 3.2 | 0.00 | 0.00 | 0.00 | 64 | 1010.4 |
| 20260507100037 | 6 | 9 | 0.0 | 1.6 | 0.00 | 0.00 | 0.00 | 64 | 1010.4 |
| 20260507094538 | 6 | 9 | 0.0 | 4.8 | 0.00 | 0.00 | 0.00 | 64 | 1010.3 |
| 20260507093030 | 7 | 325 | 1.6 | 4.8 | 0.00 | 0.00 | 0.00 | 62 | 1010.0 |
| 20260507091538 | 6 | 0 | 0.0 | 8.0 | 0.00 | 0.00 | 0.00 | 64 | 1010.0 |
| 20260507090039 | 7 | 44 | 1.6 | 6.4 | 0.00 | 0.00 | 0.00 | 60 | 1009.8 |
| 20260507084538 | 6 | 207 | 1.6 | 6.4 | 0.00 | 0.00 | 0.00 | 65 | 1009.8 |
| 20260507083037 | 5 | 9 | 3.2 | 6.4 | 0.00 | 0.00 | 0.00 | 65 | 1009.4 |
| 20260507081532 | 5 | 303 | 1.6 | 4.8 | 0.00 | 0.00 | 0.00 | 62 | 1008.9 |
| 20260507080036 | 6 | 87 | 1.6 | 6.4 | 0.00 | 0.00 | 0.00 | 61 | 1009.1 |
| 20260507074542 | 5 | 0 | 0.0 | 3.2 | 0.00 | 0.00 | 0.00 | 62 | 1009.1 |
| 20260507073032 | 7 | 340 | 1.6 | 4.8 | 0.00 | 0.00 | 0.00 | 56 | 1009.5 |
| 20260507071533 | 8 | 40 | 1.6 | 4.8 | 0.00 | 0.00 | 0.00 | 51 | 1009.1 |
| 20260507070036 | 10 | 53 | 8.0 | 25.7 | 0.00 | 0.00 | 0.00 | 54 | 1008.9 |
| 20260507064537 | 10 | 65 | 12.9 | 27.4 | 0.00 | 0.00 | 0.00 | 53 | 1008.6 |
| 20260507063035 | 10 | 93 | 19.3 | 32.2 | 0.00 | 0.00 | 0.00 | 52 | 1008.6 |
| 20260507061534 | 10 | 98 | 19.3 | 30.6 | 0.00 | 0.00 | 0.00 | 50 | 1008.3 |
| 20260507060039 | 10 | 57 | 22.5 | 37.0 | 0.00 | 0.00 | 0.00 | 44 | 1008.2 |
| 20260507054532 | 11 | 85 | 19.3 | 35.4 | 0.00 | 0.00 | 0.00 | 36 | 1008.4 |
| 20260507053032 | 12 | 71 | 27.4 | 38.6 | 0.00 | 0.00 | 0.00 | 33 | 1008.6 |
| 20260507051539 | 12 | 78 | 22.5 | 33.8 | 0.00 | 0.00 | 0.00 | 33 | 1008.5 |
| 20260507050041 | 12 | 90 | 19.3 | 30.6 | 0.00 | 0.00 | 0.00 | 34 | 1008.3 |
| 20260507044534 | 12 | 72 | 19.3 | 29.0 | 0.00 | 0.00 | 0.00 | 36 | 1008.3 |
| 20260507043032 | 10 | 98 | 0.0 | 3.2 | 0.00 | 0.00 | 0.00 | 58 | 1008.1 |
| 20260507041533 | 10 | 315 | 1.6 | 6.4 | 0.00 | 0.00 | 0.00 | 56 | 1008.0 |
| 20260507040034 | 10 | 16 | 3.2 | 6.4 | 0.00 | 0.00 | 0.00 | 56 | 1007.9 |
| 20260507034552 | 11 | 20 | 3.2 | 6.4 | 0.00 | 0.00 | 0.00 | 52 | 1007.9 |
| 20260507033033 | 11 | 355 | 1.6 | 4.8 | 0.00 | 0.00 | 0.00 | 51 | 1007.8 |
| 20260507031535 | 12 | 200 | 0.0 | 3.2 | 0.00 | 0.00 | 0.00 | 46 | 1008.0 |
| 20260507030036 | 12 | 0 | 0.0 | 0.0 | 0.00 | 0.00 | 0.00 | 44 | 1007.9 |
| 20260507024548 | 11 | 163 | 1.6 | 4.8 | 0.00 | 0.00 | 0.00 | 43 | 1008.3 |
| 20260507023031 | 11 | 321 | 0.0 | 4.8 | 0.00 | 0.00 | 0.00 | 45 | 1008.0 |
| 20260507021532 | 12 | 329 | 1.6 | 3.2 | 0.00 | 0.00 | 0.00 | 43 | 1007.7 |
| 20260507020035 | 13 | 327 | 1.6 | 4.8 | 0.00 | 0.00 | 0.00 | 43 | 1007.7 |
| 20260507014540 | 15 | 327 | 0.0 | 3.2 | 0.00 | 0.00 | 0.00 | 36 | 1007.6 |
| 20260507013034 | 16 | 309 | 1.6 | 6.4 | 0.00 | 0.00 | 0.00 | 29 | 1007.7 |
| 20260507011540 | 17 | 324 | 4.8 | 9.7 | 0.00 | 0.00 | 0.00 | 27 | 1007.8 |
| 20260507010032 | 17 | 247 | 0.0 | 14.5 | 0.00 | 0.00 | 0.00 | 26 | 1007.8 |
| 20260507004531 | 18 | 312 | 4.8 | 14.5 | 0.00 | 0.00 | 0.00 | 24 | 1008.0 |
| 20260507003034 | 18 | 290 | 8.0 | 19.3 | 0.00 | 0.00 | 0.00 | 24 | 1008.1 |
| 20260507001540 | 19 | 304 | 6.4 | 16.1 | 0.00 | 0.00 | 0.00 | 23 | 1008.2 |
| 20260507000033 | 20 | 327 | 11.3 | 24.1 | 0.00 | 0.00 | 0.00 | 24 | 1008.3 |
| 20260506234532 | 19 | 345 | 8.0 | 20.9 | 0.00 | 0.00 | 0.00 | 23 | 1008.3 |
| 20260506233033 | 18 | 325 | 9.7 | 20.9 | 0.00 | 0.00 | 0.00 | 24 | 1008.3 |
| 20260506231533 | 19 | 321 | 8.0 | 17.7 | 0.00 | 0.00 | 0.00 | 23 | 1008.5 |
| 20260506230042 | 19 | 307 | 11.3 | 22.5 | 0.00 | 0.00 | 0.00 | 23 | 1008.5 |
| 20260506224534 | 19 | 245 | 8.0 | 24.1 | 0.00 | 0.00 | 0.00 | 24 | 1008.6 |
| 20260506223032 | 20 | 299 | 4.8 | 12.9 | 0.00 | 0.00 | 0.00 | 25 | 1008.7 |
| 20260506221537 | 20 | 188 | 8.0 | 17.7 | 0.00 | 0.00 | 0.00 | 26 | 1009.0 |
| 20260506220040 | 19 | 198 | 6.4 | 16.1 | 0.00 | 0.00 | 0.00 | 24 | 1009.2 |
| 20260506214531 | 19 | 242 | 4.8 | 16.1 | 0.00 | 0.00 | 0.00 | 27 | 1009.3 |
| 20260506213032 | 18 | 283 | 4.8 | 16.1 | 0.00 | 0.00 | 0.00 | 27 | 1009.5 |
| 20260506211539 | 18 | 207 | 6.4 | 14.5 | 0.00 | 0.00 | 0.00 | 28 | 1009.7 |
| 20260506210031 | 18 | 313 | 4.8 | 14.5 | 0.00 | 0.00 | 0.00 | 26 | 1009.8 |
| 20260506204533 | 17 | 360 | 3.2 | 17.7 | 0.00 | 0.00 | 0.00 | 26 | 1010.0 |
| 20260506203032 | 17 | 220 | 8.0 | 16.1 | 0.00 | 0.00 | 0.00 | 27 | 1010.3 |
| 20260506201532 | 16 | 184 | 3.2 | 16.1 | 0.00 | 0.00 | 0.00 | 27 | 1010.6 |
| 20260506200032 | 16 | 147 | 3.2 | 16.1 | 0.00 | 0.00 | 0.00 | 27 | 1010.9 |
| 20260506194538 | 15 | 218 | 4.8 | 22.5 | 0.00 | 0.00 | 0.00 | 28 | 1011.2 |
| 20260506193034 | 15 | 221 | 6.4 | 14.5 | 0.00 | 0.00 | 0.00 | 29 | 1011.2 |
| 20260506191534 | 14 | 147 | 3.2 | 17.7 | 0.00 | 0.00 | 0.00 | 30 | 1011.5 |
| 20260506190038 | 13 | 226 | 9.7 | 24.1 | 0.00 | 0.00 | 0.00 | 30 | 1011.7 |
| 20260506184534 | 13 | 269 | 3.2 | 16.1 | 0.00 | 0.00 | 0.00 | 29 | 1012.0 |
| 20260506183034 | 12 | 208 | 4.8 | 12.9 | 0.00 | 0.00 | 0.00 | 30 | 1012.2 |